createdAt,value
2023-04-21T00:01:20.713Z,99037.59
2023-04-21T00:03:49.607Z,99035.16
2023-04-21T00:06:22.654Z,99027.72
2023-04-21T00:08:51.991Z,99028.63
2023-04-21T00:11:20.789Z,99032.19
2023-04-21T00:13:49.432Z,99034.16
2023-04-21T00:16:19.556Z,99032.50
2023-04-21T00:18:49.191Z,99035.88
2023-04-21T00:21:18.596Z,99020.66
2023-04-21T00:23:50.004Z,99027.50
2023-04-21T00:26:18.594Z,99030.16
2023-04-21T00:28:49.463Z,99015.78
2023-04-21T00:31:19.458Z,99025.25
2023-04-21T00:33:48.164Z,99026.19
2023-04-21T00:36:16.876Z,99027.09
2023-04-21T00:38:45.578Z,99029.66
2023-04-21T00:41:14.203Z,99027.09
2023-04-21T00:44:05.111Z,99024.53
2023-04-21T00:46:35.908Z,99022.09
2023-04-21T00:49:07.827Z,99023.00
2023-04-21T00:51:38.593Z,99028.09
2023-04-21T00:54:09.192Z,99028.22
2023-04-21T00:56:38.020Z,99021.47
2023-04-21T00:59:06.686Z,99024.13
2023-04-21T01:01:37.271Z,99021.69
2023-04-21T01:04:06.828Z,99014.94
2023-04-21T01:06:35.921Z,99014.94
2023-04-21T01:09:05.919Z,99012.50
2023-04-21T01:11:34.688Z,99011.69
2023-04-21T01:14:03.467Z,99020.94
2023-04-21T01:16:33.686Z,99020.22
2023-04-21T01:19:05.267Z,99014.38
2023-04-21T01:21:45.271Z,99014.38
2023-04-21T01:24:40.879Z,99017.16
2023-04-21T01:27:14.303Z,99016.34
2023-04-21T01:29:46.742Z,99023.25
2023-04-21T01:32:18.399Z,99012.34
2023-04-21T01:34:48.686Z,99014.06
2023-04-21T01:37:21.987Z,99008.16
2023-04-21T01:39:56.435Z,99021.03
2023-04-21T01:42:28.534Z,99006.63
2023-04-21T01:44:57.525Z,99001.53
2023-04-21T01:47:26.716Z,99005.09
2023-04-21T01:49:55.726Z,99017.03
2023-04-21T01:52:25.857Z,99017.94
2023-04-21T01:54:56.629Z,99010.41
2023-04-21T01:57:25.357Z,99024.84
2023-04-21T01:59:54.446Z,99007.84
2023-04-21T02:02:23.276Z,99013.06
2023-04-21T02:04:52.915Z,99010.59
2023-04-21T02:07:22.895Z,99021.59
2023-04-21T02:09:52.850Z,99014.06
2023-04-21T02:12:21.447Z,99014.28
2023-04-21T02:14:50.043Z,99020.16
2023-04-21T02:17:20.030Z,99022.72
2023-04-21T02:19:48.913Z,99020.16
2023-04-21T02:22:17.629Z,99019.38
2023-04-21T02:24:46.257Z,99022.81
2023-04-21T02:27:16.310Z,99025.47
2023-04-21T02:29:44.960Z,99026.28
2023-04-21T02:32:25.022Z,99025.56
2023-04-21T02:34:54.958Z,99031.56
2023-04-21T02:37:23.762Z,99029.94
2023-04-21T02:39:54.979Z,99027.50
2023-04-21T02:42:25.097Z,99025.84
2023-04-21T02:44:54.282Z,99024.22
2023-04-21T02:47:22.983Z,99021.84
2023-04-21T02:49:51.620Z,99021.84
2023-04-21T02:52:20.190Z,99028.81
2023-04-21T02:54:48.824Z,99028.88
2023-04-21T02:57:17.428Z,99025.53
2023-04-21T02:59:47.458Z,99025.53
2023-04-21T03:02:16.244Z,99034.91
2023-04-21T03:04:44.894Z,99025.63
2023-04-21T03:07:14.536Z,99028.28
2023-04-21T03:09:43.155Z,99022.34
2023-04-21T03:12:11.789Z,99020.72
2023-04-21T03:14:40.459Z,99022.44
2023-04-21T03:17:10.506Z,99014.91
2023-04-21T03:19:39.154Z,99012.44
2023-04-21T03:22:08.044Z,99018.44
2023-04-21T03:24:37.053Z,99011.81
2023-04-21T03:27:08.780Z,99018.66
2023-04-21T03:29:39.079Z,99017.00
2023-04-21T03:32:09.090Z,99012.81
2023-04-21T03:34:38.663Z,99018.84
2023-04-21T03:37:07.483Z,99018.84
2023-04-21T03:39:36.177Z,99019.75
2023-04-21T03:42:05.938Z,99013.03
2023-04-21T03:44:34.575Z,99011.38
2023-04-21T03:47:04.606Z,99018.22
2023-04-21T03:49:35.819Z,99018.31
2023-04-21T03:52:04.984Z,99020.88
2023-04-21T03:54:33.794Z,99008.22
2023-04-21T03:57:02.425Z,99012.50
2023-04-21T03:59:31.045Z,99016.78
2023-04-21T04:01:59.936Z,99026.16
2023-04-21T04:04:28.885Z,99017.78
2023-04-21T04:06:59.116Z,99022.06
2023-04-21T04:09:27.941Z,99018.00
2023-04-21T04:11:56.649Z,99013.09
2023-04-21T04:14:25.268Z,99005.63
2023-04-21T04:16:53.882Z,99008.38
2023-04-21T04:19:22.680Z,99014.38
2023-04-21T04:21:51.536Z,99023.00
2023-04-21T04:24:21.642Z,99023.94
2023-04-21T04:26:50.261Z,99027.50
2023-04-21T04:29:19.344Z,99028.28
2023-04-21T04:31:48.205Z,99024.00
2023-04-21T04:34:17.495Z,99025.03
2023-04-21T04:36:46.258Z,99024.22
2023-04-21T04:39:15.030Z,99025.09
2023-04-21T04:41:45.187Z,99019.13
2023-04-21T04:44:15.922Z,99023.41
2023-04-21T04:46:45.571Z,99011.47
2023-04-21T04:49:14.252Z,99013.13
2023-04-21T04:51:42.876Z,99026.75
2023-04-21T04:54:11.486Z,99019.22
2023-04-21T04:56:40.601Z,99024.50
2023-04-21T04:59:10.811Z,99021.31
2023-04-21T05:01:40.784Z,99021.31
2023-04-21T05:04:09.677Z,99011.94
2023-04-21T05:06:38.591Z,99010.22
2023-04-21T05:09:07.222Z,99012.78
2023-04-21T05:11:35.823Z,99020.31
2023-04-21T05:14:04.584Z,99027.06
2023-04-21T05:16:34.892Z,99024.50
2023-04-21T05:19:03.648Z,99031.31
2023-04-21T05:21:33.461Z,99030.59
2023-04-21T05:24:05.464Z,99033.13
2023-04-21T05:26:34.104Z,99039.88
2023-04-21T05:29:02.828Z,99035.59
2023-04-21T05:31:31.562Z,99030.50
2023-04-21T05:34:01.561Z,99038.13
2023-04-21T05:36:30.501Z,99044.97
2023-04-21T05:38:59.153Z,99033.94
2023-04-21T05:41:27.776Z,99036.50
2023-04-21T05:43:56.487Z,99038.22
2023-04-21T05:46:25.175Z,99030.59
2023-04-21T05:48:53.871Z,99021.13
2023-04-21T05:51:23.885Z,99035.38
2023-04-21T05:53:52.524Z,99027.66
2023-04-21T05:56:21.276Z,99027.66
2023-04-21T05:58:49.966Z,99027.66
2023-04-21T06:01:18.532Z,99029.50
2023-04-21T06:03:49.190Z,99034.59
2023-04-21T06:06:18.785Z,99034.59
2023-04-21T06:08:49.957Z,99040.47
2023-04-21T06:11:18.552Z,99037.03
2023-04-21T06:13:47.907Z,99039.38
2023-04-21T06:16:16.610Z,99039.22
2023-04-21T06:18:45.275Z,99035.63
2023-04-21T06:21:13.900Z,99034.56
2023-04-21T06:23:42.616Z,99042.81
2023-04-21T06:26:13.777Z,99031.72
2023-04-21T06:28:42.476Z,99047.72
2023-04-21T06:31:15.420Z,99049.25
2023-04-21T06:33:44.266Z,99058.34
2023-04-21T06:36:12.933Z,99047.97
2023-04-21T06:38:43.300Z,99049.59
2023-04-21T06:41:13.352Z,99052.06
2023-04-21T06:43:42.024Z,99052.66
2023-04-21T06:46:10.863Z,99049.22
2023-04-21T06:48:39.505Z,99046.47
2023-04-21T06:51:08.146Z,99046.19
2023-04-21T06:53:37.534Z,99039.25
2023-04-21T06:56:06.670Z,99044.16
2023-04-21T06:58:36.690Z,99043.06
2023-04-21T07:01:05.389Z,99039.38
2023-04-21T07:03:34.164Z,99036.66
2023-04-21T07:06:03.017Z,99040.75
2023-04-21T07:08:31.802Z,99033.72
2023-04-21T07:11:00.421Z,99037.81
2023-04-21T07:13:29.099Z,99041.88
2023-04-21T07:15:59.128Z,99045.06
2023-04-21T07:18:28.071Z,99037.22
2023-04-21T07:20:56.806Z,99042.00
2023-04-21T07:23:26.015Z,99037.53
2023-04-21T07:25:54.670Z,99027.13
2023-04-21T07:28:23.374Z,99023.56
2023-04-21T07:30:52.249Z,99018.41
2023-04-21T07:33:22.297Z,99024.22
2023-04-21T07:35:51.078Z,99020.66
2023-04-21T07:38:19.733Z,99027.31
2023-04-21T07:40:48.384Z,99012.72
2023-04-21T07:43:17.057Z,99020.88
2023-04-21T07:45:45.832Z,99025.75
2023-04-21T07:48:14.635Z,99028.13
2023-04-21T07:50:44.678Z,99023.63
2023-04-21T07:53:13.341Z,99018.31
2023-04-21T07:55:42.075Z,99023.13
2023-04-21T07:58:11.237Z,99025.56
2023-04-21T08:00:39.899Z,99021.91
2023-04-21T08:03:08.923Z,99025.06
2023-04-21T08:05:40.993Z,99018.00
2023-04-21T08:08:11.745Z,99017.72
2023-04-21T08:10:41.013Z,99011.38
2023-04-21T08:13:09.619Z,99011.06
2023-04-21T08:15:38.360Z,99013.22
2023-04-21T08:18:07.215Z,99013.72
2023-04-21T08:20:36.378Z,98997.28
2023-04-21T08:23:05.030Z,99000.41
2023-04-21T08:25:35.137Z,99000.94
2023-04-21T08:28:03.872Z,99003.19
2023-04-21T08:30:32.870Z,98997.84
2023-04-21T08:33:01.533Z,99003.47
2023-04-21T08:35:30.368Z,99002.53
2023-04-21T08:37:59.043Z,98998.13
2023-04-21T08:40:36.172Z,99000.56
2023-04-21T08:43:06.576Z,98986.06
2023-04-21T08:45:35.839Z,98987.69
2023-04-21T08:48:07.054Z,98979.13
2023-04-21T08:50:37.328Z,98982.38
2023-04-21T08:53:05.954Z,98982.06
2023-04-21T08:55:36.319Z,98989.41
2023-04-21T08:58:06.863Z,98980.72
2023-04-21T09:00:35.532Z,98978.66
2023-04-21T09:03:10.638Z,98977.63
2023-04-21T09:05:45.486Z,98980.69
2023-04-21T09:08:16.600Z,98978.63
2023-04-21T09:10:47.745Z,98974.84
2023-04-21T09:13:17.755Z,98975.09
2023-04-21T09:15:53.032Z,98971.16
2023-04-21T09:18:24.533Z,98968.06
2023-04-21T09:21:07.232Z,98972.50
2023-04-21T09:23:43.238Z,98971.72
2023-04-21T09:26:13.824Z,98956.63
2023-04-21T09:28:44.000Z,98969.56
2023-04-21T09:31:17.771Z,98972.13
2023-04-21T09:33:57.691Z,98965.06
2023-04-21T09:36:31.170Z,98959.63
2023-04-21T09:41:36.747Z,98951.72
2023-04-21T09:44:05.499Z,98952.63
2023-04-21T09:46:36.590Z,98951.91
2023-04-21T09:49:06.393Z,98955.16
2023-04-21T09:54:28.918Z,98938.75
2023-04-21T09:57:02.586Z,98930.06
2023-04-21T09:59:34.331Z,98918.06
2023-04-21T10:02:07.190Z,98921.19
2023-04-21T10:04:38.472Z,98926.16
2023-04-21T10:07:08.584Z,98935.34
2023-04-21T10:09:43.417Z,98933.16
2023-04-21T10:12:15.545Z,98927.91
2023-04-21T10:14:44.173Z,98925.38
2023-04-21T10:17:13.463Z,98922.13
2023-04-21T10:19:51.932Z,98918.78
2023-04-21T10:22:31.577Z,98913.22
2023-04-21T10:25:03.134Z,98914.31
2023-04-21T10:27:39.053Z,98923.22
2023-04-21T10:30:22.591Z,98916.81
2023-04-21T10:33:03.752Z,98913.25
2023-04-21T10:36:00.715Z,98909.03
2023-04-21T10:38:36.508Z,98915.94
2023-04-21T10:41:29.568Z,98910.22
2023-04-21T10:44:01.396Z,98908.19
2023-04-21T10:46:34.645Z,98907.34
2023-04-21T10:49:11.038Z,98901.00
2023-04-21T10:52:08.251Z,98891.69
2023-04-21T10:55:02.558Z,98895.22
2023-04-21T10:57:35.295Z,98891.34
2023-04-21T11:00:10.156Z,98891.78
2023-04-21T11:02:40.605Z,98896.56
2023-04-21T11:05:12.273Z,98886.03
2023-04-21T11:07:41.050Z,98887.41
2023-04-21T11:10:11.977Z,98883.56
2023-04-21T11:12:42.035Z,98885.72
2023-04-21T11:15:15.438Z,98882.78
2023-04-21T11:17:47.971Z,98884.66
2023-04-21T11:20:16.717Z,98884.63
2023-04-21T11:22:45.772Z,98875.16
2023-04-21T11:25:19.503Z,98875.94
2023-04-21T11:27:56.415Z,98884.28
2023-04-21T11:30:34.848Z,98877.22
2023-04-21T11:33:03.753Z,98868.66
2023-04-21T11:35:33.270Z,98870.13
2023-04-21T11:38:06.820Z,98868.22
2023-04-21T11:40:47.709Z,98857.91
2023-04-21T11:43:16.458Z,98857.63
2023-04-21T11:45:51.555Z,98858.25
2023-04-21T11:48:20.743Z,98859.69
2023-04-21T11:50:51.125Z,98858.34
2023-04-21T11:53:21.057Z,98858.69
2023-04-21T11:55:49.826Z,98872.63
2023-04-21T11:58:18.654Z,98872.03
2023-04-21T12:00:48.686Z,98867.19
2023-04-21T12:03:17.478Z,98881.84
2023-04-21T12:05:46.246Z,98876.84
2023-04-21T12:08:16.763Z,98864.16
2023-04-21T12:10:48.452Z,98872.91
2023-04-21T12:13:24.185Z,98880.63
2023-04-21T12:15:54.268Z,98872.91
2023-04-21T12:18:22.949Z,98888.44
2023-04-21T12:20:52.787Z,98874.78
2023-04-21T12:23:21.462Z,98874.13
2023-04-21T12:25:51.331Z,98865.63
2023-04-21T12:28:20.015Z,98857.09
2023-04-21T12:30:48.630Z,98846.72
2023-04-21T12:33:18.776Z,98846.72
2023-04-21T12:35:47.419Z,98861.16
2023-04-21T12:38:16.194Z,98876.53
2023-04-21T12:40:44.800Z,98874.78
2023-04-21T12:43:13.537Z,98873.84
2023-04-21T12:45:42.241Z,98883.19
2023-04-21T12:48:10.955Z,98864.31
2023-04-21T12:50:40.992Z,98881.28
2023-04-21T12:53:09.612Z,98876.28
2023-04-21T12:55:38.480Z,98863.59
2023-04-21T12:58:07.691Z,98861.97
2023-04-21T13:00:36.783Z,98859.41
2023-04-21T13:03:05.811Z,98856.84
2023-04-21T13:05:34.554Z,98850.91
2023-04-21T13:08:04.679Z,98853.47
2023-04-21T13:10:33.322Z,98849.97
2023-04-21T13:13:02.001Z,98843.09
2023-04-21T13:15:30.634Z,98839.59
2023-04-21T13:17:59.780Z,98825.97
2023-04-21T13:20:28.411Z,98830.28
2023-04-21T13:22:56.993Z,98820.72
2023-04-21T13:25:27.019Z,98816.38
2023-04-21T13:27:55.732Z,98820.72
2023-04-21T13:30:24.334Z,98820.72
2023-04-21T13:32:53.078Z,98812.75
2023-04-21T13:35:21.679Z,98812.75
2023-04-21T13:37:50.460Z,98806.69
2023-04-21T13:40:19.145Z,98802.38
2023-04-21T13:42:49.314Z,98807.25
2023-04-21T13:45:17.911Z,98801.03
2023-04-21T13:47:46.579Z,98788.09
2023-04-21T13:50:15.381Z,98778.41
2023-04-21T13:52:44.464Z,98778.28
2023-04-21T13:55:13.137Z,98772.06
2023-04-21T13:57:42.213Z,98776.13
2023-04-21T14:00:13.823Z,98776.00
2023-04-21T14:02:42.633Z,98755.34
2023-04-21T14:05:11.705Z,98751.72
2023-04-21T14:07:41.012Z,98743.88
2023-04-21T14:10:11.429Z,98748.78
2023-04-21T14:12:40.108Z,98748.66
2023-04-21T14:15:11.640Z,98754.44
2023-04-21T14:17:40.446Z,98740.41
2023-04-21T14:20:10.459Z,98741.25
2023-04-21T14:22:39.186Z,98738.53
2023-04-21T14:25:08.467Z,98736.63
2023-04-21T14:27:37.197Z,98719.38
2023-04-21T14:30:07.336Z,98722.59
2023-04-21T14:32:37.531Z,98715.59
2023-04-21T14:35:07.424Z,98717.09
2023-04-21T14:37:36.048Z,98710.19
2023-04-21T14:40:07.285Z,98703.19
2023-04-21T14:42:35.970Z,98703.84
2023-04-21T14:45:05.212Z,98706.41
2023-04-21T14:47:35.153Z,98694.28
2023-04-21T14:50:06.359Z,98691.72
2023-04-21T14:52:35.111Z,98689.00
2023-04-21T14:55:04.090Z,98690.50
2023-04-21T14:57:32.923Z,98688.59
2023-04-21T15:00:02.153Z,98685.09
2023-04-21T15:02:32.865Z,98685.09
2023-04-21T15:05:02.272Z,98686.72
2023-04-21T15:07:32.444Z,98673.75
2023-04-21T15:10:01.302Z,98672.69
2023-04-21T15:12:30.145Z,98654.56
2023-04-21T15:14:58.858Z,98651.88
2023-04-21T15:17:27.599Z,98648.34
2023-04-21T15:19:56.215Z,98649.97
2023-04-21T15:22:24.966Z,98654.84
2023-04-21T15:24:55.068Z,98658.09
2023-04-21T15:27:23.715Z,98659.72
2023-04-21T15:29:52.562Z,98650.94
2023-04-21T15:32:21.460Z,98655.94
2023-04-21T15:34:50.292Z,98648.09
2023-04-21T15:37:20.173Z,98646.34
2023-04-21T15:39:48.868Z,98647.97
2023-04-21T15:42:18.915Z,98640.94
2023-04-21T15:44:48.150Z,98651.22
2023-04-21T15:47:17.501Z,98645.94
2023-04-21T15:49:46.152Z,98647.56
2023-04-21T15:52:14.921Z,98650.94
2023-04-21T15:54:43.561Z,98642.44
2023-04-21T15:57:12.138Z,98648.38
2023-04-21T15:59:42.510Z,98647.44
2023-04-21T16:02:11.989Z,98645.78
2023-04-21T16:04:41.094Z,98637.94
2023-04-21T16:07:11.048Z,98634.59
2023-04-21T16:09:39.792Z,98632.69
2023-04-21T16:12:10.510Z,98636.22
2023-04-21T16:14:54.367Z,98637.16
2023-04-21T16:17:27.744Z,98641.34
2023-04-21T16:19:56.562Z,98647.16
2023-04-21T16:22:25.436Z,98644.56
2023-04-21T16:24:54.566Z,98639.44
2023-04-21T16:27:23.328Z,98645.41
2023-04-21T16:29:52.065Z,98633.38
2023-04-21T16:32:20.800Z,98638.50
2023-04-21T16:34:50.926Z,98630.78
2023-04-21T16:37:19.593Z,98640.13
2023-04-21T16:39:48.277Z,98635.94
2023-04-21T16:42:16.920Z,98630.78
2023-04-21T16:44:45.599Z,98635.94
2023-04-21T16:47:14.273Z,98645.13
2023-04-21T16:49:43.071Z,98637.56
2023-04-21T16:52:13.122Z,98633.38
2023-04-21T16:54:41.735Z,98639.44
2023-04-21T16:57:10.854Z,98639.44
2023-04-21T16:59:39.499Z,98642.16
2023-04-21T17:02:08.287Z,98649.06
2023-04-21T17:04:37.767Z,98656.91
2023-04-21T17:07:07.040Z,98680.13
2023-04-21T17:09:37.310Z,98683.66
2023-04-21T17:12:06.383Z,98695.00
2023-04-21T17:14:35.271Z,98694.31
2023-04-21T17:17:04.234Z,98703.09
2023-04-21T17:19:32.916Z,98699.84
2023-04-21T17:22:01.570Z,98688.09
2023-04-21T17:24:38.015Z,98683.06
2023-04-21T17:27:15.768Z,98673.09
2023-04-21T17:29:44.423Z,98667.25
2023-04-21T17:32:13.085Z,98664.97
2023-04-21T17:34:41.771Z,98664.28
2023-04-21T17:37:10.502Z,98671.31
2023-04-21T17:39:39.764Z,98673.19
2023-04-21T17:42:08.352Z,98669.00
2023-04-21T17:44:40.098Z,98660.78
2023-04-21T17:47:09.085Z,98655.78
2023-04-21T17:49:38.298Z,98653.38
2023-04-21T17:52:07.406Z,98651.88
2023-04-21T17:54:37.238Z,98646.06
2023-04-21T17:57:06.891Z,98654.03
2023-04-21T17:59:37.167Z,98660.22
2023-04-21T18:02:05.989Z,98668.06
2023-04-21T18:04:35.050Z,98667.38
2023-04-21T18:07:04.447Z,98658.19
2023-04-21T18:09:33.299Z,98657.53
2023-04-21T18:12:01.986Z,98659.53
2023-04-21T18:14:31.130Z,98664.00
2023-04-21T18:17:01.125Z,98665.88
2023-04-21T18:19:29.751Z,98666.00
2023-04-21T18:21:58.758Z,98664.50
2023-04-21T18:24:27.385Z,98666.41
2023-04-21T18:26:56.295Z,98669.91
2023-04-21T18:29:25.102Z,98663.16
2023-04-21T18:31:53.798Z,98652.34
2023-04-21T18:34:23.797Z,98653.31
2023-04-21T18:36:52.363Z,98651.81
2023-04-21T18:39:20.966Z,98646.97
2023-04-21T18:41:50.842Z,98643.69
2023-04-21T18:44:19.476Z,98650.03
2023-04-21T18:46:48.253Z,98641.53
2023-04-21T18:49:16.923Z,98641.78
2023-04-21T18:51:46.956Z,98652.88
2023-04-21T18:54:16.855Z,98646.13
2023-04-21T18:56:46.100Z,98656.38
2023-04-21T18:59:14.751Z,98648.81
2023-04-21T19:01:46.607Z,98659.06
2023-04-21T19:04:15.677Z,98663.38
2023-04-21T19:06:46.040Z,98683.88
2023-04-21T19:09:14.714Z,98705.34
2023-04-21T19:11:46.600Z,98693.47
2023-04-21T19:14:17.599Z,98691.97
2023-04-21T19:16:47.718Z,98682.50
2023-04-21T19:19:16.545Z,98676.59
2023-04-21T19:21:46.736Z,98678.34
2023-04-21T19:24:15.481Z,98687.63
2023-04-21T19:26:44.139Z,98705.47
2023-04-21T19:29:15.027Z,98722.31
2023-04-21T19:31:43.890Z,98710.34
2023-04-21T19:34:13.296Z,98717.91
2023-04-21T19:36:42.806Z,98697.38
2023-04-21T19:39:13.535Z,98702.53
2023-04-21T19:41:42.177Z,98686.44
2023-04-21T19:44:10.802Z,98676.31
2023-04-21T19:46:42.655Z,98686.28
2023-04-21T19:49:13.086Z,98673.88
2023-04-21T19:51:42.131Z,98676.13
2023-04-21T19:54:12.585Z,98680.13
2023-04-21T19:56:41.756Z,98690.22
2023-04-21T19:59:10.400Z,98658.34
2023-04-21T20:01:39.101Z,98655.88
2023-04-21T20:04:09.318Z,98643.94
2023-04-21T20:06:41.446Z,98665.75
2023-04-21T20:09:10.506Z,98672.66
2023-04-21T20:11:40.565Z,98670.63
2023-04-21T20:14:09.154Z,98688.41
2023-04-21T20:16:39.427Z,98698.44
2023-04-21T20:19:09.240Z,98714.34
2023-04-21T20:21:37.846Z,98722.72
2023-04-21T20:24:08.606Z,98713.97
2023-04-21T20:26:37.365Z,98712.22
2023-04-21T20:29:07.519Z,98707.91
2023-04-21T20:31:36.430Z,98703.47
2023-04-21T20:34:05.113Z,98703.34
2023-04-21T20:36:37.020Z,98705.91
2023-04-21T20:39:06.535Z,98712.66
2023-04-21T20:41:35.150Z,98710.91
2023-04-21T20:44:04.292Z,98706.59
2023-04-21T20:46:34.400Z,98703.06
2023-04-21T20:49:03.119Z,98712.53
2023-04-21T20:51:32.757Z,98710.75
2023-04-21T20:54:01.700Z,98704.84
2023-04-21T20:56:30.368Z,98711.72
2023-04-21T20:58:59.031Z,98706.59
2023-04-21T21:01:30.045Z,98710.09
2023-04-21T21:04:02.020Z,98711.97
2023-04-21T21:06:30.915Z,98709.66
2023-04-21T21:08:59.524Z,98709.00
2023-04-21T21:11:28.202Z,98717.59
2023-04-21T21:13:57.619Z,98716.22
2023-04-21T21:16:26.376Z,98724.03
2023-04-21T21:18:55.048Z,98720.78
2023-04-21T21:21:25.060Z,98730.22
2023-04-21T21:23:53.651Z,98730.34
2023-04-21T21:26:22.351Z,98735.56
2023-04-21T21:28:51.039Z,98729.66
2023-04-21T21:31:19.691Z,98733.16
2023-04-21T21:33:48.284Z,98730.59
2023-04-21T21:36:16.915Z,98727.22
2023-04-21T21:38:46.900Z,98725.59
2023-04-21T21:41:17.011Z,98726.53
2023-04-21T21:43:45.960Z,98729.09
2023-04-21T21:46:15.006Z,98732.59
2023-04-21T21:48:43.755Z,98735.16
2023-04-21T21:51:12.405Z,98729.34
2023-04-21T21:53:41.283Z,98729.34
2023-04-21T21:56:11.350Z,98727.72
2023-04-21T21:58:40.011Z,98728.66
2023-04-21T22:01:08.824Z,98733.78
2023-04-21T22:03:37.594Z,98734.59
2023-04-21T22:06:07.074Z,98739.72
2023-04-21T22:08:35.689Z,98732.84
2023-04-21T22:11:05.913Z,98738.78
2023-04-21T22:13:35.967Z,98738.78
2023-04-21T22:16:04.653Z,98724.22
2023-04-21T22:18:33.377Z,98725.97
2023-04-21T22:21:02.138Z,98737.03
2023-04-21T22:23:30.892Z,98733.66
2023-04-21T22:25:59.697Z,98732.84
2023-04-21T22:28:28.404Z,98741.47
2023-04-21T22:30:58.522Z,98743.06
2023-04-21T22:33:27.367Z,98737.28
2023-04-21T22:35:56.059Z,98741.56
2023-04-21T22:38:24.764Z,98739.00
2023-04-21T22:40:53.586Z,98750.22
2023-04-21T22:43:22.370Z,98748.59
2023-04-21T22:45:51.055Z,98749.38
2023-04-21T22:48:21.032Z,98749.50
2023-04-21T22:50:49.697Z,98746.16
2023-04-21T22:53:18.343Z,98756.38
2023-04-21T22:55:46.953Z,98747.88
2023-04-21T22:58:15.792Z,98748.84
2023-04-21T23:00:45.451Z,98752.31
2023-04-21T23:03:14.380Z,98748.97
2023-04-21T23:05:44.542Z,98743.00
2023-04-21T23:08:13.149Z,98752.47
2023-04-21T23:10:42.069Z,98747.34
2023-04-21T23:13:10.826Z,98740.56
2023-04-21T23:15:39.507Z,98738.03
2023-04-21T23:18:08.289Z,98741.38
2023-04-21T23:20:37.035Z,98733.81
2023-04-21T23:23:07.145Z,98728.72
2023-04-21T23:25:36.256Z,98725.34
2023-04-21T23:28:04.932Z,98718.47
2023-04-21T23:30:33.622Z,98713.47
2023-04-21T23:33:02.452Z,98721.97
2023-04-21T23:35:31.512Z,98715.22
2023-04-21T23:38:00.167Z,98719.53
2023-04-21T23:40:30.150Z,98717.09
2023-04-21T23:42:58.899Z,98728.28
2023-04-21T23:45:27.524Z,98729.22
2023-04-21T23:47:56.179Z,98725.94
2023-04-21T23:50:24.876Z,98729.44
2023-04-21T23:52:53.552Z,98733.75
2023-04-21T23:55:22.345Z,98735.53
2023-04-21T23:57:52.382Z,98725.41
